Time;durP1;ratioP1;P1;durP2;ratioP2;P2;SDS_P1;SDS_P2;PMS_P1;PMS_P2;Temp;Humidity;BMP_temperature;BMP_pressure;BME280_temperature;BME280_humidity;BME280_pressure;Samples;Min_cycle;Max_cycle;Signal;HPM_P1;HPM_P2
2022/11/03 00:00:13;;;;;;;2.00;1.83;;;6.90;99.90;;;;;;5115135;28;20247;-86
2022/11/03 00:02:44;;;;;;;2.27;2.07;;;6.80;99.90;;;;;;5114678;28;20550;-87
2022/11/03 00:08:05;;;;;;;1.43;1.33;;;6.70;99.90;;;;;;5115206;28;20262;-87
2022/11/03 00:10:36;;;;;;;2.77;2.03;;;6.60;99.90;;;;;;5103812;28;20241;-87
2022/11/03 00:13:10;;;;;;;1.70;1.60;;;6.60;99.90;;;;;;5094842;28;20302;-86
2022/11/03 00:15:50;;;;;;;1.93;1.53;;;6.60;99.90;;;;;;5095481;28;20207;-87
2022/11/03 00:18:21;;;;;;;1.73;1.50;;;6.50;99.90;;;;;;5096515;28;20289;-87
2022/11/03 00:20:58;;;;;;;2.63;1.70;;;6.40;99.90;;;;;;5097684;28;20292;-86
2022/11/03 00:23:31;;;;;;;1.67;1.40;;;6.40;99.90;;;;;;5105992;28;20190;-87
2022/11/03 00:26:09;;;;;;;1.90;1.70;;;6.40;99.90;;;;;;5113529;28;20234;-84
2022/11/03 00:28:43;;;;;;;2.23;2.03;;;6.40;99.90;;;;;;5109536;28;20225;-87
2022/11/03 00:31:16;;;;;;;1.50;1.40;;;6.30;99.90;;;;;;5113781;28;20285;-86
2022/11/03 00:33:48;;;;;;;2.50;2.30;;;6.30;99.90;;;;;;5105361;28;20234;-89
2022/11/03 00:36:21;;;;;;;3.33;2.40;;;6.30;99.90;;;;;;5116373;28;20245;-89
2022/11/03 00:38:52;;;;;;;3.73;2.23;;;6.20;99.90;;;;;;5114317;28;20213;-89
2022/11/03 00:41:25;;;;;;;2.60;2.20;;;6.10;99.90;;;;;;5106812;28;20203;-84
2022/11/03 00:43:59;;;;;;;2.50;2.30;;;6.10;99.90;;;;;;5105094;28;20696;-87
2022/11/03 00:46:33;;;;;;;2.50;2.27;;;6.10;99.90;;;;;;5107007;28;20562;-84
2022/11/03 00:49:06;;;;;;;3.40;2.03;;;6.00;99.90;;;;;;5107337;28;20237;-84
2022/11/03 00:51:38;;;;;;;1.90;1.77;;;5.90;99.90;;;;;;5100432;28;20297;-83
2022/11/03 00:54:09;;;;;;;2.37;1.90;;;5.90;99.90;;;;;;5093935;28;20241;-84
2022/11/03 00:56:43;;;;;;;3.17;2.37;;;5.80;99.90;;;;;;5103816;28;21071;-91
2022/11/03 00:59:16;;;;;;;2.93;2.63;;;5.80;99.90;;;;;;5108196;28;20241;-89
2022/11/03 01:01:47;;;;;;;4.30;3.30;;;5.80;99.90;;;;;;5110529;28;20238;-90
2022/11/03 01:07:07;;;;;;;4.27;3.70;;;5.60;99.90;;;;;;5116672;28;20206;-88
2022/11/03 01:09:40;;;;;;;3.80;2.93;;;5.60;99.90;;;;;;5116536;28;20678;-89
2022/11/03 01:12:12;;;;;;;4.10;2.70;;;5.50;99.90;;;;;;5113988;28;20285;-90
2022/11/03 01:14:48;;;;;;;2.73;2.20;;;5.50;99.90;;;;;;5113556;28;20233;-90
2022/11/03 01:17:22;;;;;;;2.97;2.30;;;5.50;99.90;;;;;;5095002;28;20198;-89
2022/11/03 01:19:54;;;;;;;4.30;3.00;;;5.40;99.90;;;;;;5101791;28;20213;-90
2022/11/03 01:22:25;;;;;;;4.90;4.37;;;5.20;99.90;;;;;;5113604;28;20266;-91
2022/11/03 01:24:57;;;;;;;4.00;3.60;;;5.10;99.90;;;;;;5117914;28;20663;-89
2022/11/03 01:27:28;;;;;;;4.70;3.87;;;5.10;99.90;;;;;;5087444;28;20244;-90
2022/11/03 01:30:01;;;;;;;4.23;3.93;;;5.20;99.90;;;;;;5096192;28;20761;-88
2022/11/03 01:32:32;;;;;;;5.77;3.77;;;5.20;99.90;;;;;;5103950;28;20281;-89
2022/11/03 01:35:04;;;;;;;4.13;3.70;;;5.20;99.90;;;;;;5082830;28;20241;-89
2022/11/03 01:37:35;;;;;;;3.57;3.27;;;5.20;99.90;;;;;;5107238;28;20234;-88
2022/11/03 01:40:07;;;;;;;4.23;3.30;;;5.30;99.90;;;;;;5094359;28;20715;-89
2022/11/03 01:42:41;;;;;;;5.00;3.43;;;5.30;99.90;;;;;;5093060;28;20234;-93
2022/11/03 01:45:15;;;;;;;5.03;3.80;;;5.40;99.90;;;;;;5094063;28;20285;-89
2022/11/03 01:47:47;;;;;;;4.00;3.70;;;5.40;99.90;;;;;;5095558;28;20325;-88
2022/11/03 01:50:20;;;;;;;5.17;4.43;;;5.50;99.90;;;;;;5113168;28;20217;-88
2022/11/03 01:52:55;;;;;;;6.50;4.70;;;5.50;99.90;;;;;;5118187;28;20349;-89
2022/11/03 01:55:30;;;;;;;4.87;4.37;;;5.50;99.90;;;;;;5111463;28;20248;-89
2022/11/03 01:58:04;;;;;;;4.00;3.60;;;5.50;99.90;;;;;;5089669;28;20253;-91
2022/11/03 02:00:39;;;;;;;3.27;2.97;;;5.50;99.90;;;;;;5105300;28;20572;-91
2022/11/03 02:03:11;;;;;;;5.00;4.47;;;5.50;99.90;;;;;;5096608;28;20223;-90
2022/11/03 02:05:44;;;;;;;6.00;4.60;;;5.40;99.90;;;;;;5107413;28;20726;-90
2022/11/03 02:08:20;;;;;;;6.37;4.50;;;5.40;99.90;;;;;;5105059;28;20635;-88
2022/11/03 02:10:52;;;;;;;5.23;4.10;;;5.30;99.90;;;;;;5097943;28;20209;-89
2022/11/03 02:13:26;;;;;;;3.93;3.63;;;5.20;99.90;;;;;;5106220;28;20301;-89
2022/11/03 02:16:00;;;;;;;4.17;3.80;;;5.20;99.90;;;;;;5097452;28;20241;-88
2022/11/03 02:18:35;;;;;;;4.23;3.80;;;5.20;99.90;;;;;;5096360;28;20214;-86
2022/11/03 02:21:19;;;;;;;4.73;3.30;;;5.20;99.90;;;;;;5096138;28;20202;-89
2022/11/03 02:23:56;;;;;;;4.37;2.67;;;5.20;99.90;;;;;;5095371;28;20215;-88
2022/11/03 02:26:29;;;;;;;3.33;2.77;;;5.10;99.90;;;;;;5079011;28;20199;-89
2022/11/03 02:29:01;;;;;;;3.10;2.80;;;5.10;99.90;;;;;;5111938;28;20872;-90
2022/11/03 02:31:39;;;;;;;3.30;2.60;;;5.10;99.90;;;;;;5110964;28;20854;-88
2022/11/03 02:34:18;;;;;;;3.77;3.20;;;5.10;99.90;;;;;;5116493;28;20247;-89
2022/11/03 02:36:55;;;;;;;3.43;3.00;;;5.00;99.90;;;;;;5100265;28;20225;-88
2022/11/03 02:39:29;;;;;;;2.90;2.53;;;4.90;99.90;;;;;;5105079;28;20726;-88
2022/11/03 02:42:05;;;;;;;4.20;3.20;;;4.90;99.90;;;;;;5107036;28;20237;-88
2022/11/03 02:44:38;;;;;;;5.27;3.97;;;4.90;99.90;;;;;;5100372;28;20222;-89
2022/11/03 02:47:12;;;;;;;7.07;4.60;;;4.90;99.90;;;;;;5098672;28;20327;-88
2022/11/03 02:49:48;;;;;;;5.83;4.40;;;4.90;99.90;;;;;;5100959;28;20235;-90
2022/11/03 02:52:36;;;;;;;6.10;5.17;;;4.80;99.90;;;;;;5111921;28;20198;-88
2022/11/03 02:55:13;;;;;;;4.80;3.83;;;4.80;99.90;;;;;;5101252;28;20250;-89
2022/11/03 02:57:52;;;;;;;6.07;3.83;;;4.60;99.90;;;;;;5103991;28;20273;-89
2022/11/03 03:00:24;;;;;;;4.00;3.60;;;4.50;99.90;;;;;;5115431;28;20629;-89
2022/11/03 03:03:03;;;;;;;4.30;3.90;;;4.50;99.90;;;;;;5107156;28;20274;-90
2022/11/03 03:05:36;;;;;;;5.53;4.97;;;4.60;99.90;;;;;;5100554;28;20194;-89
2022/11/03 03:08:11;;;;;;;5.37;4.40;;;4.60;99.90;;;;;;5114766;28;20224;-89
2022/11/03 03:10:46;;;;;;;6.00;5.40;;;4.50;99.90;;;;;;5114927;28;20259;-89
2022/11/03 03:13:22;;;;;;;6.23;5.03;;;4.50;99.90;;;;;;5106618;28;20203;-89
2022/11/03 03:16:07;;;;;;;7.63;5.73;;;4.60;99.90;;;;;;5105841;28;20258;-89
2022/11/03 03:18:47;;;;;;;6.90;6.10;;;4.70;99.90;;;;;;5107146;28;20610;-88
2022/11/03 03:21:24;;;;;;;6.03;4.67;;;4.70;99.90;;;;;;5115578;28;20303;-88
2022/11/03 03:24:00;;;;;;;5.20;4.53;;;4.80;99.90;;;;;;5102487;28;20201;-89
2022/11/03 03:26:34;;;;;;;5.10;4.20;;;4.80;99.90;;;;;;5104810;28;20289;-89
2022/11/03 03:29:14;;;;;;;4.83;4.17;;;4.80;99.90;;;;;;5106942;28;20651;-89
2022/11/03 03:31:52;;;;;;;3.43;3.13;;;4.90;99.90;;;;;;5100817;28;20209;-88
2022/11/03 03:34:26;;;;;;;3.20;2.90;;;4.80;99.90;;;;;;5110805;28;20206;-89
2022/11/03 03:37:06;;;;;;;5.57;4.10;;;4.80;99.90;;;;;;5105084;28;20207;-88
2022/11/03 03:39:40;;;;;;;5.13;4.73;;;4.80;99.90;;;;;;5109439;28;20223;-89
2022/11/03 03:42:14;;;;;;;4.70;4.07;;;4.70;99.90;;;;;;5086900;28;20285;-88
2022/11/03 03:44:49;;;;;;;6.23;5.63;;;4.80;99.90;;;;;;5095900;28;20214;-88
2022/11/03 03:47:24;;;;;;;7.30;6.57;;;4.80;99.90;;;;;;5103939;28;20702;-87
2022/11/03 03:49:56;;;;;;;7.10;6.40;;;4.80;99.90;;;;;;5114115;28;20228;-88
2022/11/03 03:52:27;;;;;;;5.30;4.87;;;4.80;99.90;;;;;;5113313;28;20202;-87
2022/11/03 03:54:59;;;;;;;5.00;4.50;;;4.80;99.90;;;;;;5097404;28;20207;-89
2022/11/03 03:57:34;;;;;;;5.27;4.57;;;4.80;99.90;;;;;;5100976;28;20750;-88
2022/11/03 04:00:09;;;;;;;5.47;4.60;;;4.80;99.90;;;;;;5081534;28;20396;-88
2022/11/03 04:02:40;;;;;;;4.80;4.30;;;4.70;99.90;;;;;;5119977;28;20232;-88
2022/11/03 04:05:11;;;;;;;9.53;7.57;;;4.70;99.90;;;;;;5113821;28;20254;-87
2022/11/03 04:07:49;;;;;;;7.00;6.27;;;4.70;99.90;;;;;;5114147;28;20194;-88
2022/11/03 04:10:22;;;;;;;8.37;5.70;;;4.70;99.90;;;;;;5117908;28;20245;-87
2022/11/03 04:24:03;;;;;;;4.73;4.20;;;4.30;99.90;;;;;;5108562;28;20220;-88
2022/11/03 04:26:34;;;;;;;4.20;3.70;;;4.20;99.90;;;;;;5096389;28;20241;-89
2022/11/03 04:29:08;;;;;;;4.90;4.23;;;4.10;99.90;;;;;;5105735;28;20313;-88
2022/11/03 04:31:41;;;;;;;4.93;4.20;;;4.20;99.90;;;;;;5108350;28;20213;-88
2022/11/03 04:34:14;;;;;;;5.97;4.30;;;4.20;99.90;;;;;;5101542;28;20297;-87
2022/11/03 04:36:45;;;;;;;5.43;4.80;;;4.20;99.90;;;;;;5102415;28;20213;-88
2022/11/03 04:39:19;;;;;;;4.80;4.10;;;4.40;99.90;;;;;;5102659;28;20289;-88
2022/11/03 04:41:51;;;;;;;5.20;4.30;;;4.50;99.90;;;;;;5114926;28;20209;-88
2022/11/03 04:44:22;;;;;;;4.30;3.90;;;4.60;99.90;;;;;;5097785;28;20214;-87
2022/11/03 04:46:55;;;;;;;4.70;4.00;;;4.60;99.90;;;;;;5113880;28;20258;-88
2022/11/03 04:49:27;;;;;;;5.23;4.73;;;4.70;99.90;;;;;;5110683;28;20777;-89
2022/11/03 04:51:58;;;;;;;5.80;4.53;;;4.70;99.90;;;;;;5113619;28;20309;-88
2022/11/03 04:54:30;;;;;;;4.10;3.70;;;4.80;99.90;;;;;;5115031;28;20209;-87
2022/11/03 04:57:05;;;;;;;5.03;4.00;;;4.90;99.90;;;;;;5116831;28;20302;-88
2022/11/03 04:59:37;;;;;;;4.93;4.20;;;5.00;99.90;;;;;;5117890;28;20239;-88
2022/11/03 05:02:16;;;;;;;4.03;3.73;;;5.00;99.90;;;;;;5115991;28;20202;-88
2022/11/03 05:04:48;;;;;;;4.53;4.13;;;5.00;99.90;;;;;;5101090;28;20695;-87
2022/11/03 05:07:27;;;;;;;4.17;3.77;;;5.10;99.90;;;;;;5103949;27;20224;-87
2022/11/03 05:09:58;;;;;;;4.80;4.27;;;5.20;99.90;;;;;;5114447;28;20241;-88
2022/11/03 05:12:31;;;;;;;5.07;4.43;;;5.20;99.90;;;;;;5101928;28;20234;-88
2022/11/03 05:15:08;;;;;;;6.23;4.57;;;5.20;99.90;;;;;;5094651;28;20230;-88
2022/11/03 05:17:42;;;;;;;5.23;4.00;;;5.20;99.90;;;;;;5114200;28;20198;-88
2022/11/03 05:20:30;;;;;;;4.30;3.90;;;5.20;99.90;;;;;;5096977;28;20615;-88
2022/11/03 05:23:07;;;;;;;4.53;4.13;;;5.20;99.90;;;;;;5113195;28;20299;-88
2022/11/03 05:25:43;;;;;;;5.10;3.80;;;5.10;99.90;;;;;;5114461;28;20201;-87
2022/11/03 05:28:29;;;;;;;4.30;3.90;;;5.00;99.90;;;;;;5114596;28;20292;-87
2022/11/03 05:31:01;;;;;;;4.57;4.17;;;5.00;99.90;;;;;;5113625;28;20316;-87
2022/11/03 05:33:37;;;;;;;5.40;4.60;;;4.90;99.90;;;;;;5098474;28;20594;-88
2022/11/03 05:36:15;;;;;;;4.67;4.27;;;4.80;99.90;;;;;;5115316;28;20229;-87
2022/11/03 05:38:47;;;;;;;5.17;4.67;;;4.80;99.90;;;;;;5115622;28;20198;-87
2022/11/03 05:41:23;;;;;;;5.80;5.20;;;4.70;99.90;;;;;;5105632;28;20199;-88
2022/11/03 05:43:59;;;;;;;5.70;5.07;;;4.70;99.90;;;;;;5113002;28;20259;-89
2022/11/03 05:46:32;;;;;;;5.53;5.00;;;4.60;99.90;;;;;;5095936;28;20743;-88
2022/11/03 05:49:07;;;;;;;8.63;7.73;;;4.50;99.90;;;;;;5094402;28;20227;-88
2022/11/03 05:51:43;;;;;;;8.10;7.20;;;4.50;99.90;;;;;;5110201;28;20320;-87
2022/11/03 05:54:21;;;;;;;11.00;8.80;;;4.40;99.90;;;;;;5114033;28;20262;-87
2022/11/03 05:56:53;;;;;;;8.23;7.43;;;4.40;99.90;;;;;;5114239;28;20264;-87
2022/11/03 05:59:28;;;;;;;9.17;7.17;;;4.30;99.90;;;;;;5114468;28;20203;-87
2022/11/03 06:02:02;;;;;;;6.93;5.63;;;4.30;99.90;;;;;;5113376;28;20221;-88
2022/11/03 06:04:39;;;;;;;6.00;4.63;;;4.20;99.90;;;;;;5098133;28;20710;-87
2022/11/03 06:07:26;;;;;;;4.97;4.47;;;4.20;99.90;;;;;;5095256;28;20273;-87
2022/11/03 06:09:59;;;;;;;5.83;5.33;;;4.10;99.90;;;;;;5126009;28;20243;-87
2022/11/03 06:12:32;;;;;;;4.83;4.33;;;4.10;99.90;;;;;;5131714;27;20231;-90
2022/11/03 06:15:08;;;;;;;4.53;4.13;;;4.10;99.90;;;;;;5134078;28;20237;-88
2022/11/03 06:17:42;;;;;;;3.97;3.67;;;4.00;99.90;;;;;;5118716;28;20214;-88
2022/11/03 06:20:21;;;;;;;4.30;3.90;;;3.90;99.90;;;;;;5116329;28;20243;-88
2022/11/03 06:22:56;;;;;;;4.23;3.83;;;3.90;99.90;;;;;;5115531;28;20230;-87
2022/11/03 06:25:33;;;;;;;4.00;3.70;;;3.90;99.90;;;;;;5114694;28;20217;-89
2022/11/03 06:28:06;;;;;;;3.50;3.20;;;3.90;99.90;;;;;;5114154;28;20212;-89
2022/11/03 06:30:41;;;;;;;3.43;3.10;;;3.80;99.90;;;;;;5113655;28;20312;-88
2022/11/03 06:33:17;;;;;;;4.00;3.30;;;3.80;99.90;;;;;;5113602;28;20319;-89
2022/11/03 06:35:52;;;;;;;3.90;3.60;;;3.80;99.90;;;;;;5117177;28;20194;-87
2022/11/03 06:38:26;;;;;;;7.70;4.90;;;3.80;99.90;;;;;;5117644;28;20226;-88
2022/11/03 06:40:57;;;;;;;5.77;5.27;;;3.80;99.90;;;;;;5120105;28;20234;-87
2022/11/03 06:43:38;;;;;;;5.10;4.70;;;3.80;99.90;;;;;;5116489;28;20206;-88
2022/11/03 06:46:19;;;;;;;4.97;4.47;;;3.70;99.90;;;;;;5116848;28;20614;-88
2022/11/03 06:48:51;;;;;;;4.53;4.00;;;3.60;99.90;;;;;;5116890;28;20216;-88
2022/11/03 06:51:29;;;;;;;3.77;3.47;;;3.60;99.90;;;;;;5094427;28;20658;-88
2022/11/03 06:54:01;;;;;;;4.30;3.90;;;3.60;99.90;;;;;;5116301;28;20206;-87
2022/11/03 06:56:38;;;;;;;4.30;3.90;;;3.60;99.90;;;;;;5117057;28;20222;-88
2022/11/03 06:59:13;;;;;;;5.10;4.03;;;3.50;99.90;;;;;;5116364;28;20293;-88
2022/11/03 07:01:46;;;;;;;3.73;3.43;;;3.50;99.90;;;;;;5114857;28;20277;-88
2022/11/03 07:04:21;;;;;;;4.80;3.47;;;3.40;99.90;;;;;;5118557;28;20655;-89
2022/11/03 07:06:57;;;;;;;5.00;3.17;;;3.40;99.90;;;;;;5119728;28;20236;-89
2022/11/03 07:09:28;;;;;;;3.13;2.83;;;3.50;99.90;;;;;;5117348;28;20692;-89
2022/11/03 07:12:00;;;;;;;3.63;2.93;;;3.50;99.90;;;;;;5118215;28;20262;-88
2022/11/03 07:14:34;;;;;;;3.83;3.47;;;3.50;99.90;;;;;;5120530;28;20285;-90
2022/11/03 07:17:07;;;;;;;3.70;2.73;;;3.40;99.90;;;;;;5112164;28;20231;-88
2022/11/03 07:19:41;;;;;;;3.37;3.07;;;3.30;99.90;;;;;;5097116;28;20647;-88
2022/11/03 07:22:20;;;;;;;3.00;2.70;;;3.30;99.90;;;;;;5107812;28;20229;-88
2022/11/03 07:24:54;;;;;;;2.90;2.70;;;3.30;99.90;;;;;;5117347;28;20232;-89
2022/11/03 07:27:28;;;;;;;3.07;2.87;;;3.30;99.90;;;;;;5116763;28;20257;-89
2022/11/03 07:30:04;;;;;;;4.00;2.90;;;3.20;99.90;;;;;;5116834;28;20216;-89
2022/11/03 07:32:37;;;;;;;3.60;2.93;;;3.20;99.90;;;;;;5117525;28;20233;-90
2022/11/03 07:35:30;;;;;;;2.63;2.43;;;3.30;99.90;;;;;;5119211;28;20224;-88
2022/11/03 07:38:25;;;;;;;3.10;2.80;;;3.20;99.90;;;;;;5119930;28;20212;-88
2022/11/03 07:41:00;;;;;;;3.33;2.70;;;3.20;99.90;;;;;;5096513;28;20651;-89
2022/11/03 07:43:34;;;;;;;3.03;2.73;;;3.20;99.90;;;;;;5098114;28;20202;-88
2022/11/03 07:46:07;;;;;;;2.70;2.50;;;3.20;99.90;;;;;;5118472;28;20229;-89
2022/11/03 07:48:45;;;;;;;4.70;2.77;;;3.20;99.90;;;;;;5120785;28;20250;-89
2022/11/03 07:51:21;;;;;;;3.80;3.00;;;3.10;99.90;;;;;;5120273;28;20257;-88
2022/11/03 07:53:57;;;;;;;4.53;3.87;;;3.10;99.90;;;;;;5116275;28;20225;-89
2022/11/03 07:56:33;;;;;;;4.10;3.63;;;3.00;99.90;;;;;;5099076;28;20700;-89
2022/11/03 07:59:14;;;;;;;4.70;3.87;;;3.00;99.90;;;;;;5115982;28;20201;-88
2022/11/03 08:01:49;;;;;;;3.93;3.47;;;3.00;99.90;;;;;;5116102;28;20228;-89
2022/11/03 08:04:22;;;;;;;4.30;3.90;;;3.00;99.90;;;;;;5115326;28;20221;-88
2022/11/03 08:06:54;;;;;;;5.30;4.07;;;3.00;99.90;;;;;;5115230;28;21784;-89
2022/11/03 08:09:27;;;;;;;5.37;4.60;;;3.00;99.90;;;;;;5115932;28;20202;-89
2022/11/03 08:11:59;;;;;;;5.23;4.73;;;3.00;99.90;;;;;;5094134;28;20321;-89
2022/11/03 08:14:30;;;;;;;6.90;5.27;;;3.00;99.90;;;;;;5096894;28;20288;-88
2022/11/03 08:17:01;;;;;;;7.67;6.07;;;3.00;99.90;;;;;;5116129;28;20198;-89
2022/11/03 08:19:33;;;;;;;12.13;6.03;;;3.00;99.90;;;;;;5115713;28;20234;-89
2022/11/03 08:22:05;;;;;;;25.07;7.30;;;3.00;99.90;;;;;;5114600;28;20202;-88
2022/11/03 08:24:38;;;;;;;42.83;7.00;;;3.00;99.90;;;;;;5115657;28;20633;-88
2022/11/03 08:27:09;;;;;;;49.17;7.60;;;3.00;99.90;;;;;;5115767;28;20202;-88
2022/11/03 08:29:41;;;;;;;82.67;10.00;;;3.10;99.90;;;;;;5115424;28;20718;-89
2022/11/03 08:32:13;;;;;;;122.07;10.17;;;3.00;99.90;;;;;;5114000;28;20264;-89
2022/11/03 08:34:45;;;;;;;95.97;9.00;;;3.00;99.90;;;;;;5115745;28;20206;-88
2022/11/03 08:37:17;;;;;;;155.73;11.47;;;3.00;99.90;;;;;;5115622;28;20208;-89
2022/11/03 08:39:51;;;;;;;188.27;11.93;;;3.10;99.90;;;;;;5115123;28;20218;-88
2022/11/03 08:42:22;;;;;;;129.07;9.87;;;3.10;99.90;;;;;;5114618;28;20301;-88
2022/11/03 08:44:55;;;;;;;126.87;10.27;;;3.20;99.90;;;;;;5098343;28;20240;-88
2022/11/03 08:47:26;;;;;;;88.70;8.90;;;3.30;99.90;;;;;;5118059;28;20278;-88
2022/11/03 08:49:57;;;;;;;40.83;6.97;;;3.30;99.90;;;;;;5115485;28;20202;-88
2022/11/03 08:52:28;;;;;;;26.47;6.87;;;3.40;99.90;;;;;;5116991;28;20321;-88
2022/11/03 08:55:01;;;;;;;16.57;5.97;;;3.50;99.90;;;;;;5117720;28;20243;-89
2022/11/03 08:57:33;;;;;;;7.83;5.27;;;3.50;99.90;;;;;;5114073;28;20290;-89
2022/11/03 09:00:06;;;;;;;5.83;5.00;;;3.60;99.90;;;;;;5115410;28;20637;-89
2022/11/03 09:02:38;;;;;;;5.83;4.77;;;3.70;99.90;;;;;;5111979;28;20228;-88
2022/11/03 09:05:11;;;;;;;5.33;4.83;;;3.70;99.90;;;;;;5114598;28;20655;-89
2022/11/03 09:07:43;;;;;;;6.63;4.93;;;3.80;99.90;;;;;;5086250;28;20540;-88
2022/11/03 09:10:37;;;;;;;6.10;4.93;;;3.80;99.90;;;;;;5098171;28;20205;-88
2022/11/03 09:13:11;;;;;;;5.73;4.73;;;4.00;99.90;;;;;;5113939;28;20240;-88
2022/11/03 09:15:43;;;;;;;5.70;4.67;;;4.00;99.90;;;;;;5116160;28;20231;-87
2022/11/03 09:18:14;;;;;;;7.20;5.17;;;4.00;99.90;;;;;;5116710;28;20206;-88
2022/11/03 09:20:45;;;;;;;5.33;4.80;;;4.00;99.90;;;;;;5131992;28;20210;-86
2022/11/03 09:23:16;;;;;;;5.47;4.67;;;4.00;99.90;;;;;;5121260;28;20210;-88
2022/11/03 09:25:50;;;;;;;6.27;5.60;;;4.00;99.90;;;;;;5116821;28;20329;-88
2022/11/03 09:28:21;;;;;;;5.17;4.63;;;4.10;99.90;;;;;;5115857;28;20194;-89
2022/11/03 09:30:52;;;;;;;5.63;4.97;;;4.10;99.90;;;;;;5114636;28;20610;-89
2022/11/03 09:33:24;;;;;;;6.20;4.23;;;4.00;99.90;;;;;;5114276;28;20640;-87
2022/11/03 09:35:55;;;;;;;4.93;4.43;;;4.10;99.90;;;;;;5097625;28;20290;-88
2022/11/03 09:38:27;;;;;;;5.43;4.70;;;4.10;99.90;;;;;;5114603;28;20206;-88
2022/11/03 09:41:01;;;;;;;5.27;4.63;;;4.10;99.90;;;;;;5114553;28;20300;-87
2022/11/03 09:43:42;;;;;;;4.77;4.33;;;4.00;99.90;;;;;;5113529;28;20206;-88
2022/11/03 09:46:14;;;;;;;6.47;4.33;;;3.90;99.90;;;;;;5114201;28;20293;-89
2022/11/03 09:48:46;;;;;;;5.27;4.57;;;3.80;99.90;;;;;;5076807;28;20717;-88
2022/11/03 09:51:20;;;;;;;5.27;4.53;;;3.70;99.90;;;;;;5097134;28;20285;-88
2022/11/03 09:53:51;;;;;;;4.27;3.87;;;3.60;99.90;;;;;;5113994;28;20276;-88
2022/11/03 09:56:25;;;;;;;5.23;4.73;;;3.60;99.90;;;;;;5102153;28;20263;-88
2022/11/03 09:58:56;;;;;;;6.10;5.10;;;3.60;99.90;;;;;;5108206;28;20195;-88
2022/11/03 10:01:27;;;;;;;5.33;4.80;;;3.60;99.90;;;;;;5101980;28;20198;-89
2022/11/03 10:04:01;;;;;;;5.63;5.03;;;3.60;99.90;;;;;;5112525;28;20207;-87
2022/11/03 10:06:33;;;;;;;5.80;4.87;;;3.70;99.90;;;;;;5100781;28;20223;-88
2022/11/03 10:09:06;;;;;;;5.47;4.93;;;3.70;99.90;;;;;;5117886;28;20213;-89
2022/11/03 10:11:41;;;;;;;6.30;4.90;;;3.70;99.90;;;;;;5111932;28;20248;-88
2022/11/03 10:14:15;;;;;;;5.50;4.93;;;3.90;99.90;;;;;;5078998;28;20266;-88
2022/11/03 10:16:59;;;;;;;6.00;5.13;;;3.80;99.90;;;;;;5106869;28;20285;-88
2022/11/03 10:19:30;;;;;;;5.57;4.83;;;3.80;99.90;;;;;;5117352;28;20210;-88
2022/11/03 10:22:02;;;;;;;6.60;5.60;;;3.90;99.90;;;;;;5117055;28;20202;-87
2022/11/03 10:24:34;;;;;;;6.03;5.43;;;3.90;99.90;;;;;;5117701;28;20229;-88
2022/11/03 10:27:24;;;;;;;7.50;5.77;;;3.90;99.90;;;;;;5117919;28;20251;-88
2022/11/03 10:30:09;;;;;;;6.23;5.63;;;4.00;99.90;;;;;;5109103;28;20267;-88
2022/11/03 10:32:41;;;;;;;6.10;5.20;;;4.10;99.90;;;;;;5117263;28;20269;-87
2022/11/03 10:35:33;;;;;;;6.13;5.27;;;4.20;99.90;;;;;;5118059;28;20288;-88
2022/11/03 10:38:26;;;;;;;5.83;5.23;;;4.20;99.90;;;;;;5110483;28;20718;-88
2022/11/03 10:40:58;;;;;;;8.30;5.63;;;4.20;99.90;;;;;;5099549;28;20279;-89
2022/11/03 10:43:31;;;;;;;6.60;5.90;;;4.20;99.90;;;;;;5116457;28;20228;-88
2022/11/03 10:46:13;;;;;;;6.00;5.40;;;4.30;99.90;;;;;;5116979;28;20234;-88
2022/11/03 10:49:07;;;;;;;6.17;5.57;;;4.40;99.90;;;;;;5099359;28;21048;-88
2022/11/03 10:51:39;;;;;;;5.13;4.43;;;4.40;99.90;;;;;;5106613;28;20273;-87
2022/11/03 10:54:15;;;;;;;6.20;5.60;;;4.40;99.90;;;;;;5095461;28;20230;-89
2022/11/03 10:56:47;;;;;;;5.50;5.00;;;4.40;99.90;;;;;;5099069;28;20283;-88
2022/11/03 10:59:22;;;;;;;5.97;5.33;;;4.50;99.90;;;;;;5097839;28;20230;-89
2022/11/03 11:01:53;;;;;;;5.33;4.83;;;4.50;99.90;;;;;;5107386;28;20237;-87
2022/11/03 11:04:24;;;;;;;6.37;5.57;;;4.50;99.90;;;;;;5098686;28;20607;-88
2022/11/03 11:06:56;;;;;;;5.70;5.10;;;4.60;99.90;;;;;;5096668;28;20215;-87
2022/11/03 11:09:29;;;;;;;5.80;5.20;;;4.70;99.90;;;;;;5079918;28;20301;-87
2022/11/03 11:12:05;;;;;;;5.57;4.73;;;4.70;99.90;;;;;;5110106;28;20557;-89
2022/11/03 11:14:40;;;;;;;5.23;4.57;;;4.70;99.90;;;;;;5098463;28;20309;-88
2022/11/03 11:17:42;;;;;;;5.23;4.73;;;4.70;99.90;;;;;;5116811;28;20296;-87
2022/11/03 11:20:42;;;;;;;6.50;4.67;;;4.80;99.90;;;;;;5116206;28;20221;-89
2022/11/03 11:23:45;;;;;;;6.03;5.43;;;4.80;99.90;;;;;;5095370;28;20203;-88
2022/11/03 11:26:42;;;;;;;5.20;4.70;;;4.80;99.90;;;;;;5086473;28;20619;-88
2022/11/03 11:29:45;;;;;;;5.27;4.60;;;4.80;99.90;;;;;;5097556;28;20233;-89
2022/11/03 11:32:51;;;;;;;5.10;4.60;;;4.80;99.90;;;;;;5115771;28;20209;-88
2022/11/03 11:36:04;;;;;;;7.53;5.63;;;4.70;99.90;;;;;;5088573;28;20293;-88
2022/11/03 11:39:12;;;;;;;5.93;4.97;;;4.70;99.90;;;;;;5098305;28;20191;-88
2022/11/03 11:42:12;;;;;;;6.27;5.30;;;4.70;99.90;;;;;;5070519;28;20675;-88
2022/11/03 11:45:01;;;;;;;6.07;5.47;;;4.70;99.90;;;;;;5073970;28;20214;-88
2022/11/03 11:47:36;;;;;;;7.03;6.07;;;4.70;99.90;;;;;;5092304;28;20198;-88
2022/11/03 11:50:28;;;;;;;6.93;5.50;;;4.70;99.90;;;;;;5095723;28;20239;-88
2022/11/03 11:53:03;;;;;;;6.20;5.60;;;4.70;99.90;;;;;;5114224;28;20314;-88
2022/11/03 11:55:41;;;;;;;7.53;6.47;;;4.70;99.90;;;;;;5083374;28;20658;-88
2022/11/03 11:58:22;;;;;;;6.57;5.80;;;4.70;99.90;;;;;;5116485;28;20217;-89
2022/11/03 12:01:20;;;;;;;8.07;6.20;;;4.60;99.90;;;;;;5116455;28;20285;-88
2022/11/03 12:03:52;;;;;;;6.53;5.87;;;4.70;99.90;;;;;;5106415;28;20202;-88
2022/11/03 12:06:35;;;;;;;7.20;6.33;;;4.60;99.90;;;;;;5135177;28;20178;-87
2022/11/03 12:09:08;;;;;;;8.67;6.17;;;4.60;99.90;;;;;;5136213;28;20220;-88
2022/11/03 12:11:44;;;;;;;7.10;6.40;;;4.60;99.90;;;;;;5125751;28;20194;-87
2022/11/03 12:14:26;;;;;;;8.13;6.47;;;4.50;99.90;;;;;;5105963;28;20280;-87
2022/11/03 12:17:21;;;;;;;7.50;6.67;;;4.50;99.90;;;;;;5122361;28;20202;-88
2022/11/03 12:19:55;;;;;;;6.67;6.00;;;4.50;99.90;;;;;;5125364;28;20198;-89
2022/11/03 12:22:43;;;;;;;6.93;6.10;;;4.50;99.90;;;;;;5118264;28;20209;-88
2022/11/03 12:25:38;;;;;;;6.53;5.83;;;4.50;99.90;;;;;;5116653;28;20198;-88
2022/11/03 12:28:10;;;;;;;7.37;6.07;;;4.50;99.90;;;;;;5116224;28;20206;-88
2022/11/03 12:30:41;;;;;;;7.43;6.63;;;4.50;99.90;;;;;;5095347;28;20237;-88
2022/11/03 12:33:15;;;;;;;7.80;6.90;;;4.50;99.90;;;;;;5099603;28;20292;-88
2022/11/03 12:35:47;;;;;;;6.93;6.20;;;4.50;99.90;;;;;;5115521;28;20241;-88
2022/11/03 12:38:19;;;;;;;7.57;6.43;;;4.50;99.90;;;;;;5115892;28;20651;-88
2022/11/03 12:40:52;;;;;;;8.87;6.97;;;4.40;99.90;;;;;;5115033;28;20214;-87
2022/11/03 12:43:23;;;;;;;9.07;6.57;;;4.50;99.90;;;;;;5108306;28;20233;-89
2022/11/03 12:45:54;;;;;;;6.83;5.93;;;4.40;99.90;;;;;;5116832;28;20202;-88
2022/11/03 12:48:27;;;;;;;7.57;6.73;;;4.50;99.90;;;;;;5116202;28;20684;-88
2022/11/03 12:50:58;;;;;;;7.33;6.63;;;4.50;99.90;;;;;;5115890;28;20237;-88
2022/11/03 12:53:29;;;;;;;8.20;7.00;;;4.50;99.90;;;;;;5107818;28;20198;-87
2022/11/03 12:56:00;;;;;;;7.73;6.93;;;4.50;99.90;;;;;;5108081;28;20289;-88
2022/11/03 12:58:31;;;;;;;8.40;6.90;;;4.50;99.90;;;;;;5085284;28;20553;-89
2022/11/03 13:01:03;;;;;;;7.90;7.10;;;4.50;99.90;;;;;;5094795;28;20225;-89
2022/11/03 13:03:39;;;;;;;8.30;7.30;;;4.50;99.90;;;;;;5094032;28;20206;-89
2022/11/03 13:06:13;;;;;;;8.27;6.60;;;4.60;99.90;;;;;;5114736;28;20270;-87
2022/11/03 13:08:44;;;;;;;11.17;7.63;;;4.60;99.90;;;;;;5111884;28;20295;-88
2022/11/03 13:14:09;;;;;;;8.17;7.13;;;4.40;99.90;;;;;;5078550;28;20309;-87
2022/11/03 13:16:42;;;;;;;8.27;7.00;;;4.40;99.90;;;;;;5094609;28;20210;-88
2022/11/03 13:19:15;;;;;;;7.73;6.77;;;4.50;99.90;;;;;;5103469;28;20239;-89
2022/11/03 13:21:47;;;;;;;8.30;7.50;;;4.40;99.90;;;;;;5112175;28;20203;-88
2022/11/03 13:24:19;;;;;;;8.70;7.10;;;4.40;99.90;;;;;;5093669;28;20230;-88
2022/11/03 13:26:50;;;;;;;8.13;7.30;;;4.40;99.90;;;;;;5094293;28;20238;-88
2022/11/03 13:29:21;;;;;;;7.83;7.03;;;4.40;99.90;;;;;;5094702;28;20631;-89
2022/11/03 13:31:52;;;;;;;8.13;7.30;;;4.40;99.90;;;;;;5093496;28;20227;-89
2022/11/03 13:34:26;;;;;;;8.17;7.10;;;4.50;99.90;;;;;;5094208;28;20234;-88
2022/11/03 13:36:58;;;;;;;8.60;7.10;;;4.50;99.90;;;;;;5076408;28;20206;-87
2022/11/03 13:39:29;;;;;;;7.93;7.13;;;4.50;99.90;;;;;;5100629;28;20206;-89
2022/11/03 13:42:00;;;;;;;7.90;7.10;;;4.50;99.90;;;;;;5094891;28;20237;-88
2022/11/03 13:44:31;;;;;;;8.30;7.27;;;4.50;99.90;;;;;;5114649;28;22198;-88
2022/11/03 13:47:03;;;;;;;8.93;7.17;;;4.50;99.90;;;;;;5114248;28;20609;-88
2022/11/03 13:49:43;;;;;;;7.73;6.93;;;4.50;99.90;;;;;;5118535;28;20255;-89
2022/11/03 13:52:34;;;;;;;9.57;6.30;;;4.60;99.90;;;;;;5099393;28;20644;-88
2022/11/03 13:55:05;;;;;;;9.93;6.73;;;4.70;99.90;;;;;;5102455;28;20228;-89
2022/11/03 13:57:56;;;;;;;8.03;7.23;;;4.70;99.90;;;;;;5103941;28;20202;-88